Time;durP1;ratioP1;P1;durP2;ratioP2;P2;SDS_P1;SDS_P2;PMS_P1;PMS_P2;Temp;Humidity;BMP_temperature;BMP_pressure;BME280_temperature;BME280_humidity;BME280_pressure;Samples;Min_cycle;Max_cycle;Signal;HPM_P1;HPM_P2
2020/12/27 00:02:06;;;;;;;1.20;1.00;;;-1.00;98.00;;;;;;4988981;28;20916;-65
2020/12/27 00:04:33;;;;;;;1.20;1.00;;;-1.00;98.00;;;;;;4991953;28;20551;-65
2020/12/27 00:07:03;;;;;;;1.42;1.35;;;-1.10;98.00;;;;;;4989914;28;20496;-64
2020/12/27 00:09:31;;;;;;;1.40;1.20;;;-1.10;98.00;;;;;;4991813;28;20212;-64
2020/12/27 00:11:58;;;;;;;1.17;0.90;;;-1.20;98.00;;;;;;4989824;28;20232;-64
2020/12/27 00:14:28;;;;;;;1.20;1.00;;;-1.10;98.00;;;;;;4991680;28;20570;-66
2020/12/27 00:16:54;;;;;;;1.50;1.30;;;-1.00;98.00;;;;;;4989643;28;20718;-63
2020/12/27 00:19:21;;;;;;;1.65;1.20;;;-1.00;98.00;;;;;;4991540;28;20210;-65
2020/12/27 00:21:47;;;;;;;1.20;0.95;;;-1.00;98.00;;;;;;4991249;28;20201;-64
2020/12/27 00:24:14;;;;;;;1.20;1.08;;;-0.90;98.00;;;;;;4994223;28;20584;-65
2020/12/27 00:26:41;;;;;;;1.88;1.42;;;-0.90;98.00;;;;;;4993501;28;20253;-64
2020/12/27 00:29:30;;;;;;;1.20;1.10;;;-0.90;98.00;;;;;;4995345;28;20212;-65
2020/12/27 00:31:57;;;;;;;1.20;1.00;;;-1.10;98.00;;;;;;4993037;28;20217;-65
2020/12/27 00:34:24;;;;;;;1.20;1.05;;;-1.20;98.00;;;;;;4995360;28;20209;-64
2020/12/27 00:36:55;;;;;;;1.20;1.02;;;-1.40;98.00;;;;;;4992400;28;20206;-64
2020/12/27 00:39:23;;;;;;;1.20;1.10;;;-1.60;98.00;;;;;;4995266;28;20205;-64
2020/12/27 00:41:51;;;;;;;1.40;1.23;;;-1.60;98.00;;;;;;4991850;28;20236;-67
2020/12/27 00:44:17;;;;;;;1.60;1.30;;;-1.70;98.00;;;;;;4995514;28;20665;-64
2020/12/27 00:46:48;;;;;;;1.30;1.20;;;-1.70;98.00;;;;;;4993320;28;20794;-64
2020/12/27 00:49:15;;;;;;;2.03;1.55;;;-1.60;98.00;;;;;;4995191;28;20209;-65
2020/12/27 00:51:42;;;;;;;1.40;1.30;;;-1.70;98.00;;;;;;4991861;28;20263;-67
2020/12/27 00:54:09;;;;;;;1.25;1.13;;;-1.60;98.00;;;;;;4995104;28;20205;-65
2020/12/27 00:56:35;;;;;;;1.20;1.00;;;-1.70;98.00;;;;;;4992959;28;20213;-64
2020/12/27 00:59:05;;;;;;;1.30;1.30;;;-1.70;98.00;;;;;;4995152;28;20693;-64
2020/12/27 01:01:32;;;;;;;1.20;1.02;;;-1.70;98.00;;;;;;4993126;28;20206;-68
2020/12/27 01:03:58;;;;;;;1.40;1.30;;;-1.70;98.00;;;;;;4994974;28;20264;-65
2020/12/27 01:06:27;;;;;;;2.47;2.05;;;-1.70;98.00;;;;;;4992715;28;20299;-64
2020/12/27 01:08:54;;;;;;;1.70;1.55;;;-1.50;98.00;;;;;;4994839;28;20251;-65
2020/12/27 01:11:20;;;;;;;1.40;1.20;;;-1.40;98.00;;;;;;4992618;28;20229;-65
2020/12/27 01:13:47;;;;;;;1.20;1.00;;;-1.30;98.00;;;;;;4994793;28;20465;-64
2020/12/27 01:16:18;;;;;;;2.05;1.30;;;-1.30;98.00;;;;;;4992477;28;20220;-65
2020/12/27 01:18:46;;;;;;;1.77;1.50;;;-1.40;98.00;;;;;;4994458;28;20233;-64
2020/12/27 01:21:20;;;;;;;1.20;1.00;;;-1.40;98.00;;;;;;4992596;28;20209;-64
2020/12/27 01:23:47;;;;;;;1.20;1.00;;;-1.40;98.00;;;;;;4993095;28;20472;-65
2020/12/27 01:26:13;;;;;;;1.30;1.20;;;-1.30;98.00;;;;;;4992159;28;20205;-63
2020/12/27 01:28:40;;;;;;;1.20;1.00;;;-1.60;98.00;;;;;;4994318;28;20669;-64
2020/12/27 01:31:06;;;;;;;1.40;1.35;;;-1.80;98.00;;;;;;4992119;28;20225;-64
2020/12/27 01:33:34;;;;;;;1.20;1.00;;;-1.90;98.00;;;;;;4993878;28;20260;-64
2020/12/27 01:36:00;;;;;;;1.20;1.00;;;-1.90;98.00;;;;;;4991932;28;20202;-64
2020/12/27 01:38:27;;;;;;;1.20;1.00;;;-2.10;98.00;;;;;;4994024;28;20206;-64
2020/12/27 01:41:01;;;;;;;2.30;1.45;;;-1.90;98.00;;;;;;4992270;28;20207;-66
2020/12/27 01:43:28;;;;;;;2.03;1.30;;;-1.90;98.00;;;;;;4994023;28;20216;-64
2020/12/27 01:45:54;;;;;;;1.38;1.13;;;-2.00;98.00;;;;;;4992476;28;20205;-65
2020/12/27 01:48:22;;;;;;;1.20;1.00;;;-1.80;98.00;;;;;;4994308;28;20210;-64
2020/12/27 01:50:51;;;;;;;1.20;0.90;;;-1.70;98.00;;;;;;4992080;28;20704;-64
2020/12/27 01:53:17;;;;;;;1.20;1.10;;;-1.80;98.00;;;;;;4994087;28;20680;-65
2020/12/27 01:55:44;;;;;;;1.20;1.10;;;-1.80;98.00;;;;;;4991766;28;20264;-64
2020/12/27 01:58:20;;;;;;;2.50;1.52;;;-1.80;98.00;;;;;;4993996;28;20205;-65
2020/12/27 02:00:47;;;;;;;1.65;1.33;;;-1.70;98.00;;;;;;4990614;28;20231;-64
2020/12/27 02:03:14;;;;;;;2.75;1.80;;;-1.60;98.00;;;;;;4993830;28;20221;-64
2020/12/27 02:05:44;;;;;;;1.20;1.13;;;-1.60;98.00;;;;;;4991869;28;20260;-63
2020/12/27 02:08:13;;;;;;;1.20;1.00;;;-1.70;98.00;;;;;;4993773;28;20654;-66
2020/12/27 02:10:41;;;;;;;1.20;1.00;;;-1.90;98.00;;;;;;4991563;28;20228;-65
2020/12/27 02:13:07;;;;;;;1.20;1.00;;;-2.20;98.00;;;;;;4993662;28;20213;-64
2020/12/27 02:15:34;;;;;;;1.20;1.00;;;-2.30;98.00;;;;;;4991371;28;20243;-65
2020/12/27 02:18:00;;;;;;;1.20;1.00;;;-2.30;98.00;;;;;;4993632;28;20205;-65
2020/12/27 02:20:27;;;;;;;1.35;1.10;;;-2.20;98.00;;;;;;4993484;28;20247;-64
2020/12/27 02:22:53;;;;;;;1.20;1.00;;;-1.90;98.00;;;;;;4991212;28;20216;-65
2020/12/27 02:25:21;;;;;;;1.73;1.63;;;-1.70;98.00;;;;;;4993279;28;20244;-64
2020/12/27 02:27:47;;;;;;;1.20;1.00;;;-1.70;98.00;;;;;;4991181;28;20720;-64
2020/12/27 02:30:13;;;;;;;1.20;1.02;;;-1.70;98.00;;;;;;4993029;28;20209;-65
2020/12/27 02:32:40;;;;;;;1.73;1.10;;;-1.60;98.00;;;;;;4991071;28;20221;-64
2020/12/27 02:35:07;;;;;;;1.20;1.00;;;-1.70;98.00;;;;;;4992832;28;20205;-65
2020/12/27 02:37:33;;;;;;;1.30;1.10;;;-1.80;98.00;;;;;;4991087;28;20208;-65
2020/12/27 02:40:00;;;;;;;1.20;1.00;;;-1.90;98.00;;;;;;4993024;28;20201;-63
2020/12/27 02:42:27;;;;;;;1.20;1.00;;;-1.90;98.00;;;;;;4989749;28;20236;-67
2020/12/27 02:45:10;;;;;;;1.20;1.13;;;-1.70;98.00;;;;;;4990884;28;20656;-65
2020/12/27 02:47:39;;;;;;;1.20;1.00;;;-1.80;98.00;;;;;;4991045;28;20205;-66
2020/12/27 02:50:09;;;;;;;2.33;1.45;;;-2.00;98.00;;;;;;4992961;28;20216;-64
2020/12/27 02:52:35;;;;;;;1.20;1.00;;;-2.00;98.00;;;;;;4990602;28;20213;-65
2020/12/27 02:55:02;;;;;;;1.33;1.30;;;-1.90;98.00;;;;;;4993184;28;20205;-64
2020/12/27 02:57:29;;;;;;;2.20;1.30;;;-1.90;98.00;;;;;;4991169;28;20212;-64
2020/12/27 02:59:56;;;;;;;1.30;1.20;;;-2.00;98.00;;;;;;4993054;28;20664;-65
2020/12/27 03:02:22;;;;;;;2.00;1.38;;;-1.80;98.00;;;;;;4990907;28;20227;-65
2020/12/27 03:04:48;;;;;;;1.20;1.00;;;-1.70;98.00;;;;;;4992872;28;20213;-65
2020/12/27 03:07:15;;;;;;;6.55;2.75;;;-1.60;98.00;;;;;;4990710;28;20264;-64
2020/12/27 03:09:42;;;;;;;1.30;1.10;;;-1.60;98.00;;;;;;4992591;28;20667;-66
2020/12/27 03:12:08;;;;;;;1.40;1.30;;;-1.60;98.00;;;;;;4990504;28;20221;-64
2020/12/27 03:14:36;;;;;;;1.20;1.00;;;-1.80;98.00;;;;;;4991281;28;20229;-65
2020/12/27 03:17:02;;;;;;;2.10;1.30;;;-1.90;98.00;;;;;;4990478;28;20616;-66
2020/12/27 03:19:29;;;;;;;1.20;1.00;;;-2.00;98.00;;;;;;4992492;28;20248;-65
2020/12/27 03:21:55;;;;;;;1.77;1.65;;;-1.90;98.00;;;;;;4990174;28;20263;-65
2020/12/27 03:24:22;;;;;;;1.77;1.33;;;-1.80;98.00;;;;;;4992023;28;20320;-64
2020/12/27 03:26:48;;;;;;;1.20;1.00;;;-1.80;98.00;;;;;;4990464;28;20564;-64
2020/12/27 03:29:15;;;;;;;1.20;0.90;;;-1.70;98.00;;;;;;4992084;28;20296;-64
2020/12/27 03:31:42;;;;;;;1.83;1.30;;;-1.80;98.00;;;;;;4990248;28;20221;-64
2020/12/27 03:34:09;;;;;;;1.70;1.50;;;-1.80;98.00;;;;;;4992236;28;20213;-64
2020/12/27 03:36:35;;;;;;;1.20;1.10;;;-1.90;98.00;;;;;;4988908;28;20230;-66
2020/12/27 03:39:02;;;;;;;1.85;1.48;;;-2.00;98.00;;;;;;4992223;28;20260;-66
2020/12/27 03:41:28;;;;;;;2.28;2.03;;;-2.00;98.00;;;;;;4989940;28;20201;-65
2020/12/27 03:43:55;;;;;;;1.30;1.15;;;-2.10;98.00;;;;;;4992080;28;20250;-65
2020/12/27 03:46:21;;;;;;;1.40;1.30;;;-2.10;98.00;;;;;;4990302;28;20209;-66
2020/12/27 03:48:49;;;;;;;2.40;1.70;;;-2.00;98.00;;;;;;4991978;28;20225;-65
2020/12/27 03:51:15;;;;;;;1.20;1.00;;;-2.10;98.00;;;;;;4990015;28;20264;-64
2020/12/27 03:53:42;;;;;;;1.20;1.00;;;-2.10;98.00;;;;;;4992165;28;20666;-65
2020/12/27 03:56:08;;;;;;;1.20;1.15;;;-2.20;98.00;;;;;;4990659;28;20232;-64
2020/12/27 03:58:35;;;;;;;1.20;1.00;;;-2.10;98.00;;;;;;4995600;28;20213;-66
2020/12/27 04:01:01;;;;;;;1.52;1.15;;;-2.10;98.00;;;;;;4993485;28;20205;-64
2020/12/27 04:03:27;;;;;;;1.58;1.48;;;-2.10;98.00;;;;;;4996354;28;20243;-64
2020/12/27 04:05:55;;;;;;;1.65;1.30;;;-2.10;98.00;;;;;;4994187;28;20879;-64
2020/12/27 04:08:21;;;;;;;4.32;1.67;;;-2.10;98.00;;;;;;4994741;28;20695;-65
2020/12/27 04:10:48;;;;;;;1.52;1.05;;;-2.20;98.00;;;;;;4994118;28;20232;-65
2020/12/27 04:13:15;;;;;;;1.20;1.10;;;-2.30;98.00;;;;;;4994771;28;20297;-64
2020/12/27 04:15:41;;;;;;;1.50;1.33;;;-2.30;98.00;;;;;;4995498;28;20245;-66
2020/12/27 04:18:08;;;;;;;1.20;1.00;;;-2.40;98.00;;;;;;4994529;28;20211;-66
2020/12/27 04:20:35;;;;;;;1.20;1.20;;;-2.30;98.00;;;;;;4993860;28;20671;-65
2020/12/27 04:23:02;;;;;;;1.20;1.10;;;-2.40;98.00;;;;;;4993491;28;20288;-65
2020/12/27 04:25:30;;;;;;;1.30;1.20;;;-2.40;98.00;;;;;;4995629;28;20198;-64
2020/12/27 04:27:56;;;;;;;1.20;1.05;;;-2.50;98.00;;;;;;4993446;28;20230;-66
2020/12/27 04:30:23;;;;;;;2.75;1.60;;;-2.30;98.00;;;;;;4995712;28;20244;-65
2020/12/27 04:32:50;;;;;;;1.50;1.30;;;-2.40;98.00;;;;;;4993960;28;20213;-64
2020/12/27 04:35:16;;;;;;;1.42;1.10;;;-2.50;98.00;;;;;;4995522;28;20205;-65
2020/12/27 04:37:43;;;;;;;1.38;1.30;;;-2.50;98.00;;;;;;4992895;28;20271;-65
2020/12/27 04:40:10;;;;;;;1.52;1.15;;;-2.20;98.00;;;;;;4995341;28;20664;-66
2020/12/27 04:42:37;;;;;;;1.20;1.10;;;-2.20;98.00;;;;;;4992232;28;20220;-64
2020/12/27 04:45:04;;;;;;;1.20;1.00;;;-2.10;98.00;;;;;;4995135;28;20260;-64
2020/12/27 04:47:34;;;;;;;1.20;1.00;;;-2.10;98.00;;;;;;4993385;28;20356;-64
2020/12/27 04:50:00;;;;;;;1.20;1.10;;;-2.00;98.00;;;;;;4995053;28;20201;-64
2020/12/27 04:52:33;;;;;;;1.20;1.00;;;-2.00;98.00;;;;;;4992891;28;20264;-67
2020/12/27 04:55:00;;;;;;;1.13;0.98;;;-1.90;98.00;;;;;;5010071;28;20206;-66
2020/12/27 04:57:31;;;;;;;2.15;1.85;;;-2.00;98.00;;;;;;4991813;28;20206;-65
2020/12/27 05:00:03;;;;;;;1.20;1.00;;;-2.10;98.00;;;;;;4994926;28;20624;-65
2020/12/27 05:02:30;;;;;;;1.20;1.00;;;-2.20;98.00;;;;;;4993012;28;20221;-65
2020/12/27 05:04:57;;;;;;;1.20;1.00;;;-2.20;98.00;;;;;;4994800;28;20668;-65
2020/12/27 05:07:23;;;;;;;1.40;1.30;;;-2.10;98.00;;;;;;4991896;28;20213;-65
2020/12/27 05:09:50;;;;;;;1.35;1.33;;;-2.00;98.00;;;;;;4994637;28;20213;-66
2020/12/27 05:12:18;;;;;;;1.50;1.38;;;-2.00;98.00;;;;;;4992608;28;20711;-65
2020/12/27 05:14:46;;;;;;;1.70;1.38;;;-2.00;98.00;;;;;;4994635;28;20205;-65
2020/12/27 05:17:14;;;;;;;1.42;1.42;;;-1.90;98.00;;;;;;4992625;28;20340;-66
2020/12/27 05:19:42;;;;;;;1.20;1.00;;;-2.00;98.00;;;;;;4994522;28;20272;-65
2020/12/27 05:22:09;;;;;;;1.30;1.10;;;-2.00;98.00;;;;;;4993247;28;20288;-67
2020/12/27 05:24:38;;;;;;;1.20;1.00;;;-2.00;98.00;;;;;;4994579;28;20223;-65
2020/12/27 05:27:06;;;;;;;1.77;1.40;;;-2.20;98.00;;;;;;4992580;28;20202;-65
2020/12/27 05:29:34;;;;;;;1.75;1.52;;;-2.30;98.00;;;;;;4994486;28;20209;-64
2020/12/27 05:32:03;;;;;;;1.20;1.00;;;-2.40;98.00;;;;;;4992232;28;20229;-64
2020/12/27 05:34:31;;;;;;;1.20;1.00;;;-2.50;98.00;;;;;;4994317;28;20653;-66
2020/12/27 05:36:59;;;;;;;1.50;1.40;;;-2.50;98.00;;;;;;4990993;28;20577;-64
2020/12/27 05:39:28;;;;;;;1.20;1.00;;;-2.50;98.00;;;;;;4994285;28;20209;-64
2020/12/27 05:42:02;;;;;;;1.20;1.00;;;-2.40;98.00;;;;;;4991414;28;20205;-64
2020/12/27 05:44:30;;;;;;;1.20;1.10;;;-2.40;98.00;;;;;;4994263;28;20236;-65
2020/12/27 05:46:57;;;;;;;1.73;1.55;;;-2.40;98.00;;;;;;4992000;28;20206;-66
2020/12/27 05:49:27;;;;;;;1.20;1.10;;;-2.30;98.00;;;;;;4994167;28;20205;-67
2020/12/27 05:51:55;;;;;;;1.20;1.10;;;-2.30;98.00;;;;;;4991842;28;20269;-65
2020/12/27 05:54:31;;;;;;;1.30;1.10;;;-2.30;98.00;;;;;;4993895;28;20237;-65
2020/12/27 05:57:00;;;;;;;1.20;1.00;;;-2.40;98.00;;;;;;4991079;28;20205;-64
2020/12/27 05:59:29;;;;;;;1.58;1.33;;;-2.50;98.00;;;;;;4993825;28;20244;-64
2020/12/27 06:01:57;;;;;;;1.20;1.00;;;-2.60;98.00;;;;;;4991621;28;20202;-64
2020/12/27 06:05:07;;;;;;;1.20;1.00;;;-2.50;98.00;;;;;;4993673;28;20672;-65
2020/12/27 06:07:35;;;;;;;3.58;1.20;;;-2.40;98.00;;;;;;4991511;28;20299;-66
2020/12/27 06:10:16;;;;;;;1.40;1.30;;;-2.10;98.00;;;;;;4993573;28;20213;-65
2020/12/27 06:13:07;;;;;;;1.20;1.00;;;-2.10;98.00;;;;;;4990012;28;20228;-64
2020/12/27 06:15:42;;;;;;;1.20;1.10;;;-2.20;98.00;;;;;;4993324;28;20213;-67
2020/12/27 06:18:11;;;;;;;1.20;1.00;;;-2.30;98.00;;;;;;4989808;28;20225;-66
2020/12/27 06:20:40;;;;;;;2.25;1.63;;;-2.40;98.00;;;;;;4992851;28;20267;-68
2020/12/27 06:23:07;;;;;;;1.20;1.00;;;-2.50;98.00;;;;;;4990983;28;20656;-66
2020/12/27 06:25:38;;;;;;;1.20;1.00;;;-2.40;98.00;;;;;;4993523;28;20213;-67
2020/12/27 06:28:05;;;;;;;1.20;1.08;;;-2.30;98.00;;;;;;4991718;28;20212;-66
2020/12/27 06:30:35;;;;;;;1.20;1.00;;;-2.30;98.00;;;;;;4992708;28;20201;-66
2020/12/27 06:33:06;;;;;;;1.20;1.00;;;-2.30;98.00;;;;;;4990675;28;20205;-66
2020/12/27 06:35:38;;;;;;;2.47;1.63;;;-2.30;98.00;;;;;;4993297;28;20209;-67
2020/12/27 06:38:17;;;;;;;2.05;1.42;;;-2.30;98.00;;;;;;4991007;28;20205;-67
2020/12/27 06:40:45;;;;;;;1.20;1.00;;;-2.30;98.00;;;;;;4993098;28;20608;-64
2020/12/27 06:43:19;;;;;;;1.20;1.00;;;-2.30;98.00;;;;;;4991023;28;20244;-66
2020/12/27 06:45:47;;;;;;;1.20;1.00;;;-2.30;98.00;;;;;;4993136;28;20829;-65
2020/12/27 06:48:32;;;;;;;3.33;1.85;;;-2.30;98.00;;;;;;4990966;28;20241;-67
2020/12/27 06:50:58;;;;;;;1.20;1.00;;;-2.20;98.00;;;;;;4991788;28;20629;-66
2020/12/27 06:53:44;;;;;;;1.20;1.00;;;-2.10;98.00;;;;;;4992071;28;20675;-66
2020/12/27 06:56:12;;;;;;;1.20;1.10;;;-2.00;98.00;;;;;;4990546;28;20240;-67
2020/12/27 06:58:39;;;;;;;1.20;1.00;;;-2.00;98.00;;;;;;4992652;28;20538;-66
2020/12/27 07:01:14;;;;;;;1.38;1.23;;;-2.10;98.00;;;;;;4990555;28;20221;-65
2020/12/27 07:03:41;;;;;;;1.40;1.35;;;-2.30;98.00;;;;;;4992547;28;20213;-66
2020/12/27 07:06:22;;;;;;;1.20;1.00;;;-2.40;98.00;;;;;;4990513;28;20232;-67
2020/12/27 07:08:50;;;;;;;1.10;1.02;;;-2.40;98.00;;;;;;4992455;28;20262;-65
2020/12/27 07:11:22;;;;;;;1.80;1.60;;;-2.30;98.00;;;;;;4990169;28;20222;-66
2020/12/27 07:13:53;;;;;;;1.30;1.20;;;-2.20;98.00;;;;;;4991251;28;20605;-66
2020/12/27 07:16:28;;;;;;;1.20;1.10;;;-2.10;98.00;;;;;;4990578;28;20209;-67
2020/12/27 07:19:03;;;;;;;1.20;1.10;;;-1.80;98.00;;;;;;4992395;28;20204;-66
2020/12/27 07:21:30;;;;;;;1.20;1.08;;;-2.00;98.00;;;;;;4990665;28;20201;-65
2020/12/27 07:24:18;;;;;;;1.27;1.17;;;-2.20;98.00;;;;;;4990966;28;20220;-68
2020/12/27 07:26:47;;;;;;;2.58;1.30;;;-2.30;98.00;;;;;;4990357;28;20221;-67
2020/12/27 07:29:18;;;;;;;2.30;1.48;;;-2.40;98.00;;;;;;4992091;28;20205;-65
2020/12/27 07:31:45;;;;;;;1.20;1.10;;;-2.40;98.00;;;;;;4989644;28;20221;-66
2020/12/27 07:34:14;;;;;;;1.15;1.00;;;-2.40;98.00;;;;;;4992413;28;20292;-66
2020/12/27 07:36:41;;;;;;;1.63;1.52;;;-2.50;98.00;;;;;;4990196;28;20277;-66
2020/12/27 07:39:09;;;;;;;1.20;1.00;;;-2.40;98.00;;;;;;4992328;28;20205;-65
2020/12/27 07:41:38;;;;;;;1.20;1.00;;;-2.40;98.00;;;;;;4990236;28;20790;-65
2020/12/27 07:44:10;;;;;;;1.17;0.98;;;-2.40;98.00;;;;;;4992335;28;20676;-64
2020/12/27 07:46:37;;;;;;;1.20;1.00;;;-2.20;98.00;;;;;;4988974;28;20205;-64
2020/12/27 07:49:07;;;;;;;1.98;1.20;;;-2.00;98.00;;;;;;4990916;28;20205;-64
2020/12/27 07:51:34;;;;;;;2.70;1.60;;;-1.90;98.00;;;;;;4989991;28;20239;-64
2020/12/27 07:54:02;;;;;;;3.05;1.98;;;-2.00;98.00;;;;;;4992108;28;20232;-64
2020/12/27 07:56:29;;;;;;;1.30;1.25;;;-1.80;98.00;;;;;;4990109;28;20715;-64
2020/12/27 07:58:59;;;;;;;1.20;1.00;;;-1.80;98.00;;;;;;4990766;28;20217;-64
2020/12/27 08:01:28;;;;;;;2.15;1.63;;;-1.80;98.00;;;;;;4990134;28;20201;-64
2020/12/27 08:03:57;;;;;;;3.05;1.38;;;-1.60;98.00;;;;;;4992012;28;20268;-66
2020/12/27 08:06:25;;;;;;;2.40;1.65;;;-1.50;98.00;;;;;;4989921;28;20559;-66
2020/12/27 08:09:01;;;;;;;1.30;1.20;;;-1.60;98.00;;;;;;4991852;28;20220;-66
2020/12/27 08:11:28;;;;;;;1.20;1.00;;;-1.50;98.00;;;;;;4989836;28;20727;-65
2020/12/27 08:13:58;;;;;;;1.10;1.00;;;-1.60;98.00;;;;;;4991763;28;20644;-64
2020/12/27 08:16:25;;;;;;;1.17;1.00;;;-1.70;98.00;;;;;;4989857;28;20209;-64
2020/12/27 08:19:02;;;;;;;1.40;1.30;;;-1.70;98.00;;;;;;4991650;28;20240;-64
2020/12/27 08:21:29;;;;;;;1.50;1.30;;;-1.70;98.00;;;;;;4989848;28;20683;-65
2020/12/27 08:24:00;;;;;;;2.00;1.60;;;-1.70;98.00;;;;;;4991598;28;20213;-65
2020/12/27 08:26:29;;;;;;;1.20;1.00;;;-1.70;98.00;;;;;;4989416;28;20949;-65
2020/12/27 08:29:15;;;;;;;1.20;0.90;;;-1.70;98.00;;;;;;4991162;28;20216;-64
2020/12/27 08:31:42;;;;;;;1.20;1.00;;;-1.60;98.00;;;;;;4989244;28;20226;-64
2020/12/27 08:34:11;;;;;;;1.35;1.20;;;-1.50;98.00;;;;;;4991684;28;20673;-64
2020/12/27 08:36:40;;;;;;;1.88;1.70;;;-1.50;98.00;;;;;;4988371;28;20209;-64
2020/12/27 08:39:21;;;;;;;2.30;1.40;;;-1.50;98.00;;;;;;4991693;28;20236;-63
2020/12/27 08:41:59;;;;;;;1.20;1.00;;;-1.50;98.00;;;;;;4989661;28;20210;-64
2020/12/27 08:44:39;;;;;;;1.20;1.00;;;-1.40;98.00;;;;;;4995542;28;20259;-63
2020/12/27 08:47:09;;;;;;;1.20;1.15;;;-1.30;98.00;;;;;;4992087;28;20232;-66
2020/12/27 08:49:46;;;;;;;1.50;1.20;;;-1.30;98.00;;;;;;4995327;28;20515;-64
2020/12/27 08:52:21;;;;;;;1.20;1.10;;;-1.20;98.00;;;;;;4993144;28;20249;-65
2020/12/27 08:54:53;;;;;;;3.28;1.75;;;-1.10;98.00;;;;;;4995167;28;20206;-68
2020/12/27 08:57:20;;;;;;;1.58;1.52;;;-0.80;98.00;;;;;;4993221;28;20206;-69
2020/12/27 09:00:01;;;;;;;1.20;1.10;;;-0.70;98.00;;;;;;4995065;28;20206;-68
2020/12/27 09:02:28;;;;;;;2.35;2.05;;;-0.60;98.00;;;;;;4992754;28;20823;-64
2020/12/27 09:05:08;;;;;;;1.20;1.10;;;-0.40;98.00;;;;;;4994874;28;20214;-66
2020/12/27 09:07:37;;;;;;;1.30;1.25;;;-0.40;98.00;;;;;;4992994;28;20209;-66
2020/12/27 09:10:08;;;;;;;1.20;1.00;;;-0.40;98.00;;;;;;4993288;28;20574;-66
2020/12/27 09:12:36;;;;;;;1.75;1.40;;;-0.30;98.00;;;;;;4992193;28;20236;-67
2020/12/27 09:15:21;;;;;;;1.42;1.42;;;-0.40;98.00;;;;;;4994208;28;20687;-67
2020/12/27 09:17:54;;;;;;;3.80;2.45;;;-0.40;98.00;;;;;;4991959;28;20211;-65
2020/12/27 09:20:29;;;;;;;1.85;1.75;;;-0.40;98.00;;;;;;4993801;28;20210;-64
2020/12/27 09:22:56;;;;;;;1.20;1.00;;;-0.50;98.00;;;;;;4989876;28;20240;-65
2020/12/27 09:25:25;;;;;;;1.55;1.52;;;-0.60;98.00;;;;;;4993273;28;20202;-66
2020/12/27 09:27:54;;;;;;;1.42;1.33;;;-0.60;98.00;;;;;;4991431;28;20209;-64
2020/12/27 09:30:24;;;;;;;1.40;1.23;;;-0.50;98.00;;;;;;4993239;28;20229;-63
2020/12/27 09:32:58;;;;;;;1.73;1.63;;;-0.50;98.00;;;;;;4990520;28;20296;-64
2020/12/27 09:35:25;;;;;;;2.95;1.45;;;-0.50;98.00;;;;;;4993791;28;20579;-64
2020/12/27 09:37:52;;;;;;;1.25;1.23;;;-0.40;98.00;;;;;;4990605;28;20205;-64
2020/12/27 09:40:20;;;;;;;4.65;2.47;;;-0.20;98.00;;;;;;4993454;28;20212;-64
2020/12/27 09:42:47;;;;;;;1.20;1.20;;;0.00;98.00;;;;;;4990414;28;20209;-65
2020/12/27 09:45:22;;;;;;;2.10;1.50;;;0.10;98.00;;;;;;4993690;28;20206;-65
2020/12/27 09:47:55;;;;;;;2.00;1.48;;;0.10;98.00;;;;;;4991790;28;20531;-64
2020/12/27 09:50:29;;;;;;;1.30;1.30;;;0.20;98.00;;;;;;4993467;28;20261;-67
2020/12/27 09:52:56;;;;;;;1.50;1.25;;;0.30;98.00;;;;;;4991216;28;20230;-66
2020/12/27 09:55:24;;;;;;;3.70;1.92;;;0.30;98.00;;;;;;4993830;28;20538;-65
2020/12/27 09:57:50;;;;;;;2.15;1.20;;;0.30;98.00;;;;;;4990492;28;20202;-63
2020/12/27 10:00:17;;;;;;;1.20;1.10;;;0.40;98.00;;;;;;4993444;28;20213;-65
2020/12/27 10:02:44;;;;;;;1.80;1.50;;;0.40;98.00;;;;;;4991274;28;20478;-64
2020/12/27 10:05:11;;;;;;;1.20;1.10;;;0.30;98.00;;;;;;4993582;28;20841;-64
2020/12/27 10:07:39;;;;;;;1.30;1.00;;;0.30;98.00;;;;;;4991328;28;20202;-67
2020/12/27 10:10:08;;;;;;;1.67;1.42;;;0.40;98.00;;;;;;4992991;28;20237;-66
2020/12/27 10:12:34;;;;;;;2.37;1.50;;;0.50;98.00;;;;;;4991043;28;20230;-66
2020/12/27 10:15:02;;;;;;;2.60;2.03;;;0.70;98.00;;;;;;4993149;28;20462;-66
2020/12/27 10:17:29;;;;;;;1.20;1.00;;;0.70;98.00;;;;;;4991299;28;20477;-65
2020/12/27 10:19:58;;;;;;;1.40;1.27;;;0.80;98.00;;;;;;4992874;28;20524;-65
2020/12/27 10:22:25;;;;;;;2.03;1.40;;;1.00;98.00;;;;;;4990477;28;20509;-65
2020/12/27 10:24:51;;;;;;;1.60;1.60;;;1.20;98.00;;;;;;4992615;28;20477;-64
2020/12/27 10:27:18;;;;;;;1.20;1.10;;;1.10;98.00;;;;;;4990884;28;20521;-64
2020/12/27 10:29:44;;;;;;;1.60;1.50;;;1.10;98.00;;;;;;4991328;28;20473;-64
2020/12/27 10:32:12;;;;;;;1.20;1.13;;;1.00;98.00;;;;;;4991068;28;20493;-65
2020/12/27 10:34:38;;;;;;;2.20;1.50;;;1.10;98.00;;;;;;4992764;28;20520;-65
2020/12/27 10:37:06;;;;;;;1.20;1.00;;;1.10;98.00;;;;;;4990597;28;20515;-66
2020/12/27 10:39:33;;;;;;;1.50;1.50;;;1.20;98.00;;;;;;4992267;28;20552;-64
2020/12/27 10:41:59;;;;;;;1.40;1.20;;;1.30;98.00;;;;;;4990351;28;20490;-64
2020/12/27 10:44:26;;;;;;;1.30;1.10;;;1.40;98.00;;;;;;4992806;28;20466;-65
2020/12/27 10:46:53;;;;;;;1.20;1.00;;;1.60;98.00;;;;;;4990284;28;20829;-64
2020/12/27 10:49:21;;;;;;;1.87;1.47;;;1.70;98.00;;;;;;4992015;28;20892;-66
2020/12/27 10:51:48;;;;;;;1.20;1.00;;;1.70;98.00;;;;;;4990071;28;20487;-65
2020/12/27 10:54:15;;;;;;;1.50;1.30;;;1.70;98.00;;;;;;4992413;28;20465;-65
2020/12/27 10:56:43;;;;;;;1.20;1.00;;;1.70;98.00;;;;;;4990213;28;20835;-65
2020/12/27 10:59:10;;;;;;;1.20;1.10;;;1.80;98.00;;;;;;4992511;28;20836;-63
2020/12/27 11:01:42;;;;;;;1.30;1.20;;;1.80;98.00;;;;;;4990257;28;20513;-64
2020/12/27 11:04:09;;;;;;;1.20;0.90;;;1.90;98.00;;;;;;4992474;28;20473;-63
2020/12/27 11:06:36;;;;;;;2.07;1.30;;;1.80;98.00;;;;;;4989849;28;20462;-64
2020/12/27 11:09:03;;;;;;;1.20;1.00;;;1.90;98.00;;;;;;4992206;28;20463;-64
2020/12/27 11:11:30;;;;;;;1.30;1.10;;;1.90;98.00;;;;;;4990061;28;20857;-64
2020/12/27 11:13:57;;;;;;;1.20;0.90;;;1.90;98.00;;;;;;4992115;28;20466;-65
2020/12/27 11:16:23;;;;;;;1.30;1.10;;;2.00;98.00;;;;;;4991772;28;20469;-66
2020/12/27 11:18:51;;;;;;;1.30;1.20;;;2.10;98.00;;;;;;4991171;28;20501;-64
2020/12/27 11:21:18;;;;;;;2.43;1.20;;;2.10;98.00;;;;;;4990742;28;20459;-66
2020/12/27 11:23:44;;;;;;;1.43;1.40;;;2.00;98.00;;;;;;4990222;28;20463;-64
2020/12/27 11:26:11;;;;;;;1.30;1.20;;;2.00;98.00;;;;;;4991780;28;20491;-63
2020/12/27 11:28:38;;;;;;;6.63;2.10;;;2.00;98.00;;;;;;4988863;28;20464;-64
2020/12/27 11:31:05;;;;;;;1.20;1.00;;;2.00;98.00;;;;;;4991513;28;20814;-64
2020/12/27 11:33:31;;;;;;;1.30;1.20;;;2.00;98.00;;;;;;4989806;28;20474;-63
2020/12/27 11:35:58;;;;;;;1.20;0.90;;;2.10;98.00;;;;;;4992003;28;20458;-64
2020/12/27 11:38:24;;;;;;;1.97;1.40;;;2.00;98.00;;;;;;4990016;28;20463;-67
2020/12/27 11:40:51;;;;;;;1.20;1.00;;;2.00;98.00;;;;;;4991546;28;20468;-64
2020/12/27 11:43:17;;;;;;;3.83;1.23;;;2.00;98.00;;;;;;4989892;28;20460;-64
2020/12/27 11:45:45;;;;;;;1.27;1.00;;;1.90;98.00;;;;;;4991981;28;20518;-65
2020/12/27 11:48:11;;;;;;;1.20;1.03;;;1.90;98.00;;;;;;4990122;28;20463;-65
2020/12/27 11:50:38;;;;;;;1.20;1.10;;;1.90;98.00;;;;;;4991380;28;20876;-65
2020/12/27 11:53:04;;;;;;;2.20;1.40;;;1.90;98.00;;;;;;4989501;28;20990;-64
2020/12/27 11:55:30;;;;;;;1.30;1.13;;;1.90;98.00;;;;;;4991598;28;20461;-63
2020/12/27 11:57:57;;;;;;;1.20;1.00;;;1.90;98.00;;;;;;4989805;28;20801;-66
2020/12/27 12:00:23;;;;;;;1.10;0.90;;;2.00;98.00;;;;;;4991072;28;20883;-64
2020/12/27 12:02:51;;;;;;;1.20;0.90;;;2.00;98.00;;;;;;4989387;28;20490;-65
2020/12/27 12:05:17;;;;;;;1.40;1.30;;;2.00;98.00;;;;;;4991460;28;20466;-65
2020/12/27 12:07:44;;;;;;;1.17;1.00;;;1.90;98.00;;;;;;4989588;28;20463;-67
2020/12/27 12:10:10;;;;;;;1.20;1.00;;;2.00;98.00;;;;;;4990233;28;20502;-64
2020/12/27 12:12:37;;;;;;;1.20;1.00;;;2.10;98.00;;;;;;4989439;28;20502;-65
2020/12/27 12:15:03;;;;;;;1.50;1.30;;;2.10;98.00;;;;;;4991382;28;20618;-65
2020/12/27 12:17:30;;;;;;;1.20;1.00;;;2.10;98.00;;;;;;4992390;28;20463;-65
2020/12/27 12:19:57;;;;;;;1.80;1.40;;;2.10;98.00;;;;;;4995690;28;20481;-64
2020/12/27 12:22:24;;;;;;;1.20;1.00;;;2.10;98.00;;;;;;4993524;28;20565;-65
2020/12/27 12:24:50;;;;;;;1.43;1.27;;;2.10;98.00;;;;;;4995035;28;20488;-64
2020/12/27 12:27:16;;;;;;;1.20;0.90;;;2.10;98.00;;;;;;4993131;28;20842;-64
2020/12/27 12:29:43;;;;;;;1.20;1.00;;;2.30;98.00;;;;;;4994793;28;21007;-64
2020/12/27 12:32:09;;;;;;;1.20;1.00;;;2.60;98.00;;;;;;4993103;28;20805;-65
2020/12/27 12:34:36;;;;;;;1.20;1.13;;;2.60;98.00;;;;;;4993755;28;20526;-64
2020/12/27 12:37:03;;;;;;;1.30;1.10;;;2.50;98.00;;;;;;4993129;28;20477;-64
2020/12/27 12:39:30;;;;;;;3.97;2.40;;;2.40;98.00;;;;;;4995249;28;20467;-65
2020/12/27 12:41:57;;;;;;;1.37;1.17;;;2.30;98.00;;;;;;4993349;28;20529;-65
2020/12/27 12:44:24;;;;;;;1.37;1.20;;;2.30;98.00;;;;;;4995048;28;20460;-66
2020/12/27 12:46:51;;;;;;;1.80;1.27;;;2.20;98.00;;;;;;4993050;28;20819;-64
2020/12/27 12:49:17;;;;;;;1.20;0.97;;;2.20;98.00;;;;;;4995197;28;20498;-65
2020/12/27 12:51:44;;;;;;;1.53;1.50;;;2.20;98.00;;;;;;4992064;28;20564;-64
2020/12/27 12:54:11;;;;;;;1.23;1.07;;;2.20;98.00;;;;;;4995120;28;20463;-65
2020/12/27 12:56:38;;;;;;;1.20;1.00;;;2.20;98.00;;;;;;4993004;28;20455;-65
2020/12/27 12:59:04;;;;;;;1.20;1.20;;;2.20;98.00;;;;;;4994895;28;20467;-65